Time;durP1;ratioP1;P1;durP2;ratioP2;P2;SDS_P1;SDS_P2;PMS_P1;PMS_P2;Temp;Humidity;BMP_temperature;BMP_pressure;BME280_temperature;BME280_humidity;BME280_pressure;Samples;Min_cycle;Max_cycle;Signal;HPM_P1;HPM_P2
2023/09/22 00:03:42;;;;;;;8.18;5.10;;;;;;;25.42;50.71;99537.00;41344767;28;20042;-71
2023/09/22 00:23:42;;;;;;;9.32;5.32;;;;;;;25.37;50.91;99521.59;41353040;28;20096;-72
2023/09/22 00:43:43;;;;;;;10.38;5.47;;;;;;;25.29;50.77;99526.03;41347548;28;20155;-72
2023/09/22 01:03:44;;;;;;;6.75;4.95;;;;;;;25.34;50.99;99526.34;41350393;28;20053;-73
2023/09/22 01:23:44;;;;;;;8.70;4.82;;;;;;;25.28;51.10;99525.22;41339868;28;20113;-72
2023/09/22 01:43:45;;;;;;;9.30;4.75;;;;;;;25.21;51.07;99525.03;41322993;28;20045;-72
2023/09/22 02:03:45;;;;;;;7.45;4.63;;;;;;;25.26;51.04;99528.00;41306930;28;20112;-72
2023/09/22 02:23:46;;;;;;;9.60;5.25;;;;;;;25.24;50.86;99527.38;41322478;28;20058;-70
2023/09/22 02:43:46;;;;;;;6.03;4.38;;;;;;;25.22;50.81;99515.28;41337265;28;20049;-71
2023/09/22 03:03:47;;;;;;;7.90;4.18;;;;;;;25.21;51.07;99503.03;41330738;28;20057;-72
2023/09/22 03:23:48;;;;;;;5.53;4.30;;;;;;;25.19;51.10;99497.88;41323256;28;20048;-73
2023/09/22 03:43:49;;;;;;;8.15;4.40;;;;;;;25.14;51.10;99494.91;41361575;28;20061;-71
2023/09/22 04:03:50;;;;;;;8.52;4.72;;;;;;;25.07;50.65;99470.94;41346241;28;20041;-70
2023/09/22 04:23:57;;;;;;;15.23;4.90;;;;;;;25.39;50.88;99508.19;41332061;28;20041;-72
2023/09/22 04:43:58;;;;;;;11.52;4.43;;;;;;;22.93;53.26;99486.72;41345021;28;20048;-74
2023/09/22 05:03:58;;;;;;;16.23;4.72;;;;;;;22.85;54.23;99531.50;41351076;28;20050;-77
2023/09/22 05:23:59;;;;;;;13.63;4.45;;;;;;;22.58;55.01;99553.50;41326323;28;20042;-68
2023/09/22 05:44:00;;;;;;;10.90;4.38;;;;;;;23.05;53.82;99520.81;41340912;28;20061;-74
2023/09/22 06:04:04;;;;;;;8.93;4.50;;;;;;;23.09;53.43;99522.16;41332050;28;20038;-74
2023/09/22 06:24:06;;;;;;;10.55;4.35;;;;;;;23.01;53.96;99528.22;41371631;28;20068;-74
2023/09/22 06:44:06;;;;;;;10.70;4.10;;;;;;;22.61;54.47;99497.81;41408841;28;20511;-74
2023/09/22 07:04:09;;;;;;;7.57;3.50;;;;;;;23.40;54.02;99583.34;41409255;28;20050;-72
2023/09/22 07:24:09;;;;;;;12.00;5.55;;;;;;;24.49;51.36;99594.41;41403041;28;20085;-75
2023/09/22 07:44:10;;;;;;;14.10;6.35;;;;;;;24.27;51.42;99562.25;41396052;28;20054;-72
2023/09/22 08:04:10;;;;;;;10.40;4.50;;;;;;;23.28;54.31;99605.72;41319289;28;20566;-69
2023/09/22 08:24:11;;;;;;;11.70;4.20;;;;;;;23.49;53.94;99611.47;41335041;28;20455;-69
2023/09/22 08:44:12;;;;;;;16.52;4.50;;;;;;;23.89;52.94;99619.03;41341249;28;20074;-72
2023/09/22 09:04:32;;;;;;;13.27;4.18;;;;;;;24.27;52.16;99606.41;41330302;28;20045;-79
2023/09/22 09:24:32;;;;;;;14.32;3.97;;;;;;;24.42;50.85;99575.69;41364981;28;20129;-72
2023/09/22 09:44:33;;;;;;;19.58;4.25;;;;;;;24.59;50.31;99570.47;41370091;28;20047;-72
2023/09/22 10:04:34;;;;;;;17.83;4.15;;;;;;;25.30;48.25;99515.25;41358501;28;20125;-80
2023/09/22 10:24:38;;;;;;;12.43;3.55;;;;;;;25.35;46.72;99490.91;41370877;28;20503;-77
2023/09/22 10:44:59;;;;;;;16.38;3.10;;;;;;;25.58;45.96;99504.31;41375226;28;20046;-73
2023/09/22 11:04:59;;;;;;;13.52;2.97;;;;;;;25.85;43.89;99495.16;41350540;28;20141;-75
2023/09/22 11:25:01;;;;;;;16.83;3.63;;;;;;;26.02;45.02;99490.59;41388072;28;20042;-80
2023/09/22 11:45:09;;;;;;;14.50;4.75;;;;;;;25.52;46.20;99459.94;41414274;28;20128;-78
2023/09/22 12:05:09;;;;;;;15.32;4.82;;;;;;;25.67;45.93;99484.75;41381459;28;20145;-78
2023/09/22 12:25:09;;;;;;;13.23;4.47;;;;;;;25.74;45.35;99495.50;41369157;28;20080;-73
2023/09/22 12:45:10;;;;;;;12.52;5.07;;;;;;;25.84;45.56;99495.28;41349635;28;20133;-73
2023/09/22 13:05:12;;;;;;;9.85;5.15;;;;;;;25.92;45.26;99502.41;41344934;28;20156;-73
2023/09/22 13:25:13;;;;;;;19.50;4.35;;;;;;;26.37;46.42;99480.47;41345363;28;20050;-76
2023/09/22 13:45:14;;;;;;;16.55;4.65;;;;;;;26.74;42.45;99445.38;41342106;28;20184;-75
2023/09/22 14:05:14;;;;;;;14.05;3.50;;;;;;;26.98;42.29;99457.66;41392104;28;20510;-82
2023/09/22 14:25:15;;;;;;;12.68;3.25;;;;;;;26.79;41.38;99458.97;41379888;28;20034;-77
2023/09/22 14:45:16;;;;;;;10.30;2.90;;;;;;;27.66;37.58;99451.50;41334321;28;20057;-72
2023/09/22 15:05:19;;;;;;;9.38;3.10;;;;;;;27.05;40.08;99452.44;41337759;28;20050;-77
2023/09/22 15:25:20;;;;;;;9.35;2.70;;;;;;;26.84;40.21;99452.13;41350985;28;20577;-73
2023/09/22 15:45:24;;;;;;;8.50;2.70;;;;;;;26.39;40.82;99459.09;41384979;28;20116;-80
2023/09/22 16:05:26;;;;;;;10.77;3.22;;;;;;;26.29;38.28;99455.81;41392312;28;20049;-73
2023/09/22 16:25:30;;;;;;;12.05;2.70;;;;;;;26.37;38.75;99501.72;41349249;28;20073;-74
2023/09/22 16:45:31;;;;;;;10.68;2.88;;;;;;;26.13;39.08;99513.28;41394169;28;20049;-74
2023/09/22 17:05:33;;;;;;;10.15;2.83;;;;;;;25.97;40.12;99532.72;41335468;28;20046;-71
2023/09/22 17:25:38;;;;;;;13.10;4.10;;;;;;;25.75;41.20;99507.75;41325735;28;20109;-73
2023/09/22 17:45:39;;;;;;;15.43;4.10;;;;;;;25.91;42.80;99532.59;41344958;28;20077;-72
2023/09/22 18:05:40;;;;;;;9.20;3.90;;;;;;;25.95;42.67;99558.59;41318963;28;20050;-72
2023/09/22 18:25:41;;;;;;;17.13;3.75;;;;;;;25.80;42.13;99539.88;41320245;28;20069;-71
2023/09/22 18:45:45;;;;;;;11.98;3.20;;;;;;;25.53;42.27;99520.72;41315233;28;20042;-74
2023/09/22 19:05:50;;;;;;;19.95;3.47;;;;;;;25.99;42.68;99537.88;41312933;28;20038;-72
2023/09/22 19:25:52;;;;;;;9.77;3.47;;;;;;;26.02;42.53;99546.31;41343787;28;20092;-78
2023/09/22 19:45:53;;;;;;;9.48;3.58;;;;;;;26.10;41.99;99550.78;41327334;28;20498;-75
2023/09/22 20:05:54;;;;;;;14.05;4.90;;;;;;;26.06;43.88;99538.81;41312129;28;20046;-73
2023/09/22 20:26:03;;;;;;;12.45;5.43;;;;;;;26.00;44.66;99528.88;41356121;28;20073;-75
2023/09/22 20:46:06;;;;;;;10.73;5.38;;;;;;;25.48;45.03;99458.63;41362744;28;20046;-78
2023/09/22 21:06:07;;;;;;;9.63;4.90;;;;;;;25.87;45.27;99526.78;41340304;28;20070;-74
2023/09/22 21:26:07;;;;;;;14.10;5.60;;;;;;;25.88;46.55;99554.97;41345179;28;20136;-73
2023/09/22 21:46:08;;;;;;;10.40;5.90;;;;;;;25.77;46.95;99557.97;41349182;28;20124;-73
2023/09/22 22:06:12;;;;;;;10.13;5.90;;;;;;;25.61;47.35;99545.56;41345191;28;20057;-73
2023/09/22 22:26:16;;;;;;;13.88;6.07;;;;;;;25.51;47.48;99543.94;41336405;28;20046;-74
2023/09/22 22:46:16;;;;;;;9.02;5.88;;;;;;;25.43;47.67;99530.69;41343441;28;20045;-73
2023/09/22 23:06:17;;;;;;;9.65;6.20;;;;;;;25.61;47.19;99553.53;41340337;28;20786;-73
2023/09/22 23:26:17;;;;;;;13.02;6.45;;;;;;;25.63;47.07;99539.09;41342752;28;20070;-74
2023/09/22 23:46:19;;;;;;;7.95;5.95;;;;;;;25.66;47.17;99535.28;41354162;28;20525;-77
